sensor_id;sensor_type;location;lat;lon;timestamp;P1;durP1;ratioP1;P2;durP2;ratioP2
11139;SDS011;5624;49.388;11.350;2023-06-22T00:00:52;10.43;;;8.63;;
11139;SDS011;5624;49.388;11.350;2023-06-22T00:03:19;12.48;;;9.45;;
11139;SDS011;5624;49.388;11.350;2023-06-22T00:05:46;10.07;;;7.10;;
11139;SDS011;5624;49.388;11.350;2023-06-22T00:08:12;8.77;;;7.03;;
11139;SDS011;5624;49.388;11.350;2023-06-22T00:10:38;10.10;;;6.78;;
11139;SDS011;5624;49.388;11.350;2023-06-22T00:13:03;9.60;;;7.28;;
11139;SDS011;5624;49.388;11.350;2023-06-22T00:15:30;11.98;;;7.97;;
11139;SDS011;5624;49.388;11.350;2023-06-22T00:17:56;10.55;;;6.40;;
11139;SDS011;5624;49.388;11.350;2023-06-22T00:20:22;10.52;;;7.88;;
11139;SDS011;5624;49.388;11.350;2023-06-22T00:22:52;9.45;;;7.57;;
11139;SDS011;5624;49.388;11.350;2023-06-22T00:25:18;13.82;;;7.20;;
11139;SDS011;5624;49.388;11.350;2023-06-22T00:27:44;8.63;;;7.00;;
11139;SDS011;5624;49.388;11.350;2023-06-22T00:30:10;10.25;;;7.22;;
11139;SDS011;5624;49.388;11.350;2023-06-22T00:32:36;13.90;;;7.30;;
11139;SDS011;5624;49.388;11.350;2023-06-22T00:35:01;8.63;;;7.03;;
11139;SDS011;5624;49.388;11.350;2023-06-22T00:37:27;9.10;;;8.05;;
11139;SDS011;5624;49.388;11.350;2023-06-22T00:39:54;9.38;;;6.78;;
11139;SDS011;5624;49.388;11.350;2023-06-22T00:42:23;10.27;;;7.25;;
11139;SDS011;5624;49.388;11.350;2023-06-22T00:44:49;8.77;;;7.50;;
11139;SDS011;5624;49.388;11.350;2023-06-22T00:47:15;8.70;;;7.65;;
11139;SDS011;5624;49.388;11.350;2023-06-22T00:49:42;9.70;;;7.75;;
11139;SDS011;5624;49.388;11.350;2023-06-22T00:52:08;11.82;;;7.57;;
11139;SDS011;5624;49.388;11.350;2023-06-22T00:54:40;7.70;;;6.85;;
11139;SDS011;5624;49.388;11.350;2023-06-22T00:57:13;8.73;;;7.50;;
11139;SDS011;5624;49.388;11.350;2023-06-22T00:59:41;10.32;;;7.13;;
11139;SDS011;5624;49.388;11.350;2023-06-22T01:02:07;7.75;;;6.57;;
11139;SDS011;5624;49.388;11.350;2023-06-22T01:04:34;9.65;;;7.00;;
11139;SDS011;5624;49.388;11.350;2023-06-22T01:09:43;10.88;;;8.77;;
11139;SDS011;5624;49.388;11.350;2023-06-22T01:12:14;12.15;;;9.18;;
11139;SDS011;5624;49.388;11.350;2023-06-22T01:14:43;11.98;;;9.88;;
11139;SDS011;5624;49.388;11.350;2023-06-22T01:17:17;14.25;;;9.88;;
11139;SDS011;5624;49.388;11.350;2023-06-22T01:19:45;10.95;;;8.07;;
11139;SDS011;5624;49.388;11.350;2023-06-22T01:22:20;8.90;;;7.78;;
11139;SDS011;5624;49.388;11.350;2023-06-22T01:30:34;10.20;;;7.22;;
11139;SDS011;5624;49.388;11.350;2023-06-22T01:33:00;11.25;;;6.80;;
11139;SDS011;5624;49.388;11.350;2023-06-22T01:35:28;8.82;;;7.00;;
11139;SDS011;5624;49.388;11.350;2023-06-22T01:37:54;7.35;;;6.57;;
11139;SDS011;5624;49.388;11.350;2023-06-22T01:40:20;10.15;;;7.10;;
11139;SDS011;5624;49.388;11.350;2023-06-22T01:42:46;9.70;;;6.97;;
11139;SDS011;5624;49.388;11.350;2023-06-22T01:45:13;11.85;;;7.55;;
11139;SDS011;5624;49.388;11.350;2023-06-22T01:47:39;8.98;;;6.90;;
11139;SDS011;5624;49.388;11.350;2023-06-22T01:50:06;12.05;;;7.53;;
11139;SDS011;5624;49.388;11.350;2023-06-22T01:52:33;10.10;;;7.20;;
11139;SDS011;5624;49.388;11.350;2023-06-22T01:54:59;9.88;;;8.63;;
11139;SDS011;5624;49.388;11.350;2023-06-22T01:57:26;12.93;;;7.45;;
11139;SDS011;5624;49.388;11.350;2023-06-22T02:00:02;9.68;;;7.85;;
11139;SDS011;5624;49.388;11.350;2023-06-22T02:02:50;7.78;;;6.45;;
11139;SDS011;5624;49.388;11.350;2023-06-22T02:05:21;7.65;;;6.45;;
11139;SDS011;5624;49.388;11.350;2023-06-22T02:07:59;8.25;;;6.22;;
11139;SDS011;5624;49.388;11.350;2023-06-22T02:10:29;8.63;;;6.25;;
11139;SDS011;5624;49.388;11.350;2023-06-22T02:12:57;9.75;;;5.90;;
11139;SDS011;5624;49.388;11.350;2023-06-22T02:15:24;7.57;;;6.15;;
11139;SDS011;5624;49.388;11.350;2023-06-22T02:17:50;9.23;;;6.95;;
11139;SDS011;5624;49.388;11.350;2023-06-22T02:20:16;8.82;;;7.25;;
11139;SDS011;5624;49.388;11.350;2023-06-22T02:22:41;8.00;;;6.28;;
11139;SDS011;5624;49.388;11.350;2023-06-22T02:25:07;8.88;;;7.57;;
11139;SDS011;5624;49.388;11.350;2023-06-22T02:27:33;8.02;;;7.22;;
11139;SDS011;5624;49.388;11.350;2023-06-22T02:29:58;9.80;;;6.60;;
11139;SDS011;5624;49.388;11.350;2023-06-22T02:32:24;7.65;;;6.40;;
11139;SDS011;5624;49.388;11.350;2023-06-22T02:34:49;9.18;;;6.72;;
11139;SDS011;5624;49.388;11.350;2023-06-22T02:37:15;10.15;;;6.40;;
11139;SDS011;5624;49.388;11.350;2023-06-22T02:39:41;9.50;;;6.43;;
11139;SDS011;5624;49.388;11.350;2023-06-22T02:42:07;10.68;;;6.38;;
11139;SDS011;5624;49.388;11.350;2023-06-22T02:44:32;10.38;;;7.28;;
11139;SDS011;5624;49.388;11.350;2023-06-22T02:46:58;10.05;;;8.02;;
11139;SDS011;5624;49.388;11.350;2023-06-22T02:49:24;9.02;;;7.32;;
11139;SDS011;5624;49.388;11.350;2023-06-22T02:51:49;13.00;;;7.75;;
11139;SDS011;5624;49.388;11.350;2023-06-22T02:54:15;10.15;;;8.20;;
11139;SDS011;5624;49.388;11.350;2023-06-22T02:56:41;9.88;;;7.57;;
11139;SDS011;5624;49.388;11.350;2023-06-22T02:59:09;9.98;;;7.10;;
11139;SDS011;5624;49.388;11.350;2023-06-22T03:01:35;11.57;;;7.10;;
11139;SDS011;5624;49.388;11.350;2023-06-22T03:04:04;10.13;;;7.63;;
11139;SDS011;5624;49.388;11.350;2023-06-22T03:06:33;10.13;;;7.28;;
11139;SDS011;5624;49.388;11.350;2023-06-22T03:09:00;10.63;;;9.30;;
11139;SDS011;5624;49.388;11.350;2023-06-22T03:11:28;9.80;;;6.85;;
11139;SDS011;5624;49.388;11.350;2023-06-22T03:13:55;8.80;;;6.18;;
11139;SDS011;5624;49.388;11.350;2023-06-22T03:16:21;8.88;;;7.43;;
11139;SDS011;5624;49.388;11.350;2023-06-22T03:18:47;11.88;;;7.20;;
11139;SDS011;5624;49.388;11.350;2023-06-22T03:21:12;12.25;;;7.35;;
11139;SDS011;5624;49.388;11.350;2023-06-22T03:23:40;8.90;;;7.07;;
11139;SDS011;5624;49.388;11.350;2023-06-22T03:26:06;10.82;;;7.25;;
11139;SDS011;5624;49.388;11.350;2023-06-22T03:28:31;9.45;;;7.00;;
11139;SDS011;5624;49.388;11.350;2023-06-22T03:30:57;8.90;;;7.05;;
11139;SDS011;5624;49.388;11.350;2023-06-22T03:33:23;12.88;;;7.22;;
11139;SDS011;5624;49.388;11.350;2023-06-22T03:35:49;9.40;;;7.13;;
11139;SDS011;5624;49.388;11.350;2023-06-22T03:38:15;10.82;;;8.95;;
11139;SDS011;5624;49.388;11.350;2023-06-22T03:40:41;10.77;;;8.23;;
11139;SDS011;5624;49.388;11.350;2023-06-22T03:43:07;10.63;;;7.90;;
11139;SDS011;5624;49.388;11.350;2023-06-22T03:45:32;13.20;;;7.88;;
11139;SDS011;5624;49.388;11.350;2023-06-22T03:47:58;11.80;;;8.02;;
11139;SDS011;5624;49.388;11.350;2023-06-22T03:50:24;9.25;;;8.02;;
11139;SDS011;5624;49.388;11.350;2023-06-22T03:52:49;9.77;;;7.93;;
11139;SDS011;5624;49.388;11.350;2023-06-22T03:55:17;11.27;;;8.85;;
11139;SDS011;5624;49.388;11.350;2023-06-22T03:57:44;11.45;;;8.65;;
11139;SDS011;5624;49.388;11.350;2023-06-22T04:00:09;12.32;;;8.60;;
11139;SDS011;5624;49.388;11.350;2023-06-22T04:02:36;10.50;;;7.90;;
11139;SDS011;5624;49.388;11.350;2023-06-22T04:05:01;8.70;;;7.60;;
11139;SDS011;5624;49.388;11.350;2023-06-22T04:07:27;9.90;;;8.90;;
11139;SDS011;5624;49.388;11.350;2023-06-22T04:09:52;11.50;;;8.18;;
11139;SDS011;5624;49.388;11.350;2023-06-22T04:12:18;9.57;;;7.70;;
11139;SDS011;5624;49.388;11.350;2023-06-22T04:14:43;10.50;;;8.13;;
11139;SDS011;5624;49.388;11.350;2023-06-22T04:17:09;11.05;;;8.45;;
11139;SDS011;5624;49.388;11.350;2023-06-22T04:19:35;9.82;;;7.97;;
11139;SDS011;5624;49.388;11.350;2023-06-22T04:22:00;10.45;;;7.88;;
11139;SDS011;5624;49.388;11.350;2023-06-22T04:24:26;10.50;;;8.45;;
11139;SDS011;5624;49.388;11.350;2023-06-22T04:26:51;10.07;;;8.32;;
11139;SDS011;5624;49.388;11.350;2023-06-22T04:29:19;11.55;;;8.07;;
11139;SDS011;5624;49.388;11.350;2023-06-22T04:31:45;11.95;;;8.15;;
11139;SDS011;5624;49.388;11.350;2023-06-22T04:34:16;12.05;;;8.38;;
11139;SDS011;5624;49.388;11.350;2023-06-22T04:36:42;9.80;;;7.82;;
11139;SDS011;5624;49.388;11.350;2023-06-22T04:39:08;14.95;;;8.88;;
11139;SDS011;5624;49.388;11.350;2023-06-22T04:41:38;9.95;;;8.43;;
11139;SDS011;5624;49.388;11.350;2023-06-22T04:44:08;12.50;;;8.02;;
11139;SDS011;5624;49.388;11.350;2023-06-22T04:49:28;11.88;;;8.32;;
11139;SDS011;5624;49.388;11.350;2023-06-22T04:51:58;11.48;;;7.38;;
11139;SDS011;5624;49.388;11.350;2023-06-22T04:54:24;9.05;;;7.72;;
11139;SDS011;5624;49.388;11.350;2023-06-22T04:56:50;10.38;;;7.97;;
11139;SDS011;5624;49.388;11.350;2023-06-22T04:59:21;11.07;;;7.40;;
11139;SDS011;5624;49.388;11.350;2023-06-22T05:01:47;8.52;;;7.07;;
11139;SDS011;5624;49.388;11.350;2023-06-22T05:04:13;9.65;;;7.22;;
11139;SDS011;5624;49.388;11.350;2023-06-22T05:06:38;9.80;;;7.35;;
11139;SDS011;5624;49.388;11.350;2023-06-22T05:09:04;8.75;;;7.47;;
11139;SDS011;5624;49.388;11.350;2023-06-22T05:11:31;9.77;;;7.18;;
11139;SDS011;5624;49.388;11.350;2023-06-22T05:13:56;8.70;;;7.10;;
11139;SDS011;5624;49.388;11.350;2023-06-22T05:16:22;10.60;;;7.20;;
11139;SDS011;5624;49.388;11.350;2023-06-22T05:18:52;11.07;;;7.25;;
11139;SDS011;5624;49.388;11.350;2023-06-22T05:21:23;8.63;;;7.65;;
11139;SDS011;5624;49.388;11.350;2023-06-22T05:23:50;8.60;;;6.97;;
11139;SDS011;5624;49.388;11.350;2023-06-22T05:26:17;8.85;;;7.32;;
11139;SDS011;5624;49.388;11.350;2023-06-22T05:28:43;10.20;;;7.82;;
11139;SDS011;5624;49.388;11.350;2023-06-22T05:31:11;9.40;;;6.75;;
11139;SDS011;5624;49.388;11.350;2023-06-22T05:33:38;8.40;;;6.93;;
11139;SDS011;5624;49.388;11.350;2023-06-22T05:36:04;9.68;;;6.65;;
11139;SDS011;5624;49.388;11.350;2023-06-22T05:38:30;9.27;;;6.90;;
11139;SDS011;5624;49.388;11.350;2023-06-22T05:40:56;8.25;;;6.88;;
11139;SDS011;5624;49.388;11.350;2023-06-22T05:43:21;8.50;;;7.15;;
11139;SDS011;5624;49.388;11.350;2023-06-22T05:45:47;7.93;;;6.90;;
11139;SDS011;5624;49.388;11.350;2023-06-22T05:48:12;8.30;;;6.60;;
11139;SDS011;5624;49.388;11.350;2023-06-22T05:50:38;8.60;;;6.55;;
11139;SDS011;5624;49.388;11.350;2023-06-22T05:53:03;9.00;;;7.57;;
11139;SDS011;5624;49.388;11.350;2023-06-22T05:55:31;9.65;;;6.10;;
11139;SDS011;5624;49.388;11.350;2023-06-22T05:57:57;7.10;;;6.32;;
11139;SDS011;5624;49.388;11.350;2023-06-22T06:00:23;9.05;;;7.80;;
11139;SDS011;5624;49.388;11.350;2023-06-22T06:02:49;10.20;;;6.65;;
11139;SDS011;5624;49.388;11.350;2023-06-22T06:05:14;6.95;;;6.25;;
11139;SDS011;5624;49.388;11.350;2023-06-22T06:07:41;9.90;;;6.85;;
11139;SDS011;5624;49.388;11.350;2023-06-22T06:10:07;8.65;;;6.50;;
11139;SDS011;5624;49.388;11.350;2023-06-22T06:12:34;8.15;;;6.05;;
11139;SDS011;5624;49.388;11.350;2023-06-22T06:14:59;7.53;;;6.75;;
11139;SDS011;5624;49.388;11.350;2023-06-22T06:17:25;7.07;;;6.38;;
11139;SDS011;5624;49.388;11.350;2023-06-22T06:19:50;10.50;;;6.57;;
11139;SDS011;5624;49.388;11.350;2023-06-22T06:22:16;9.27;;;6.05;;
11139;SDS011;5624;49.388;11.350;2023-06-22T06:24:43;7.82;;;6.28;;
11139;SDS011;5624;49.388;11.350;2023-06-22T06:27:09;8.35;;;6.18;;
11139;SDS011;5624;49.388;11.350;2023-06-22T06:29:35;7.93;;;5.78;;
11139;SDS011;5624;49.388;11.350;2023-06-22T06:32:00;7.20;;;6.00;;
11139;SDS011;5624;49.388;11.350;2023-06-22T06:34:26;6.78;;;5.90;;
11139;SDS011;5624;49.388;11.350;2023-06-22T06:36:51;7.05;;;5.90;;
11139;SDS011;5624;49.388;11.350;2023-06-22T06:39:17;6.47;;;5.72;;
11139;SDS011;5624;49.388;11.350;2023-06-22T06:41:42;7.47;;;5.53;;
11139;SDS011;5624;49.388;11.350;2023-06-22T06:44:08;6.07;;;5.20;;
11139;SDS011;5624;49.388;11.350;2023-06-22T06:46:33;11.18;;;6.07;;
11139;SDS011;5624;49.388;11.350;2023-06-22T06:48:59;6.80;;;5.85;;
11139;SDS011;5624;49.388;11.350;2023-06-22T06:51:24;9.07;;;6.57;;
11139;SDS011;5624;49.388;11.350;2023-06-22T06:53:50;6.20;;;4.97;;
11139;SDS011;5624;49.388;11.350;2023-06-22T06:56:16;6.38;;;5.60;;
11139;SDS011;5624;49.388;11.350;2023-06-22T06:58:41;7.13;;;5.95;;
11139;SDS011;5624;49.388;11.350;2023-06-22T07:01:07;8.57;;;5.80;;
11139;SDS011;5624;49.388;11.350;2023-06-22T07:03:33;11.90;;;5.53;;
11139;SDS011;5624;49.388;11.350;2023-06-22T07:05:59;9.30;;;5.57;;
11139;SDS011;5624;49.388;11.350;2023-06-22T07:08:25;7.25;;;5.95;;
11139;SDS011;5624;49.388;11.350;2023-06-22T07:10:51;8.77;;;5.70;;
11139;SDS011;5624;49.388;11.350;2023-06-22T07:13:17;12.73;;;6.00;;
11139;SDS011;5624;49.388;11.350;2023-06-22T07:15:42;8.05;;;5.82;;
11139;SDS011;5624;49.388;11.350;2023-06-22T07:18:08;7.45;;;4.93;;
11139;SDS011;5624;49.388;11.350;2023-06-22T07:20:34;7.20;;;5.25;;
11139;SDS011;5624;49.388;11.350;2023-06-22T07:23:00;7.40;;;5.25;;
11139;SDS011;5624;49.388;11.350;2023-06-22T07:25:26;6.88;;;4.88;;
11139;SDS011;5624;49.388;11.350;2023-06-22T07:28:05;5.75;;;4.82;;
11139;SDS011;5624;49.388;11.350;2023-06-22T07:30:31;7.50;;;5.10;;
11139;SDS011;5624;49.388;11.350;2023-06-22T07:32:58;7.35;;;4.97;;
11139;SDS011;5624;49.388;11.350;2023-06-22T07:35:28;6.80;;;5.40;;
11139;SDS011;5624;49.388;11.350;2023-06-22T07:37:54;8.50;;;5.25;;
11139;SDS011;5624;49.388;11.350;2023-06-22T07:40:20;6.30;;;5.28;;
11139;SDS011;5624;49.388;11.350;2023-06-22T07:42:46;6.30;;;4.63;;
11139;SDS011;5624;49.388;11.350;2023-06-22T07:45:13;5.78;;;4.75;;
11139;SDS011;5624;49.388;11.350;2023-06-22T07:47:39;5.10;;;4.32;;
11139;SDS011;5624;49.388;11.350;2023-06-22T07:50:04;5.43;;;4.38;;
11139;SDS011;5624;49.388;11.350;2023-06-22T07:52:31;8.75;;;5.05;;
11139;SDS011;5624;49.388;11.350;2023-06-22T07:54:57;6.63;;;4.75;;
11139;SDS011;5624;49.388;11.350;2023-06-22T07:57:22;6.38;;;4.18;;
11139;SDS011;5624;49.388;11.350;2023-06-22T07:59:48;6.00;;;4.88;;
11139;SDS011;5624;49.388;11.350;2023-06-22T08:02:14;8.07;;;5.30;;
11139;SDS011;5624;49.388;11.350;2023-06-22T08:04:39;8.90;;;5.40;;
11139;SDS011;5624;49.388;11.350;2023-06-22T08:07:06;7.63;;;5.22;;
11139;SDS011;5624;49.388;11.350;2023-06-22T08:09:32;5.22;;;4.35;;
11139;SDS011;5624;49.388;11.350;2023-06-22T08:11:58;5.88;;;4.93;;
11139;SDS011;5624;49.388;11.350;2023-06-22T08:14:27;7.88;;;4.60;;
11139;SDS011;5624;49.388;11.350;2023-06-22T08:16:54;6.28;;;4.47;;
11139;SDS011;5624;49.388;11.350;2023-06-22T08:19:20;8.10;;;4.53;;
11139;SDS011;5624;49.388;11.350;2023-06-22T08:21:45;6.20;;;4.88;;
11139;SDS011;5624;49.388;11.350;2023-06-22T08:24:11;6.22;;;4.53;;
11139;SDS011;5624;49.388;11.350;2023-06-22T08:26:37;6.88;;;4.25;;
11139;SDS011;5624;49.388;11.350;2023-06-22T08:29:03;6.18;;;4.75;;
11139;SDS011;5624;49.388;11.350;2023-06-22T08:31:29;7.10;;;4.53;;
11139;SDS011;5624;49.388;11.350;2023-06-22T08:33:55;7.03;;;4.82;;
11139;SDS011;5624;49.388;11.350;2023-06-22T08:36:21;5.70;;;3.95;;
11139;SDS011;5624;49.388;11.350;2023-06-22T08:38:47;7.13;;;4.20;;
11139;SDS011;5624;49.388;11.350;2023-06-22T08:41:16;8.88;;;4.82;;
11139;SDS011;5624;49.388;11.350;2023-06-22T08:43:42;7.70;;;4.35;;
11139;SDS011;5624;49.388;11.350;2023-06-22T08:46:09;7.32;;;4.32;;
11139;SDS011;5624;49.388;11.350;2023-06-22T08:48:35;6.45;;;4.25;;
11139;SDS011;5624;49.388;11.350;2023-06-22T08:51:01;11.70;;;5.03;;
11139;SDS011;5624;49.388;11.350;2023-06-22T08:53:27;5.40;;;4.07;;
11139;SDS011;5624;49.388;11.350;2023-06-22T08:55:53;7.97;;;4.78;;
11139;SDS011;5624;49.388;11.350;2023-06-22T08:58:18;7.53;;;4.22;;
11139;SDS011;5624;49.388;11.350;2023-06-22T09:00:46;8.48;;;4.32;;
11139;SDS011;5624;49.388;11.350;2023-06-22T09:03:12;8.35;;;5.00;;
11139;SDS011;5624;49.388;11.350;2023-06-22T09:05:38;6.75;;;4.38;;
11139;SDS011;5624;49.388;11.350;2023-06-22T09:08:04;6.18;;;4.53;;
11139;SDS011;5624;49.388;11.350;2023-06-22T09:10:29;6.93;;;4.53;;
11139;SDS011;5624;49.388;11.350;2023-06-22T09:12:55;6.25;;;4.70;;
11139;SDS011;5624;49.388;11.350;2023-06-22T09:15:21;7.00;;;4.50;;
11139;SDS011;5624;49.388;11.350;2023-06-22T09:17:47;8.75;;;4.82;;
11139;SDS011;5624;49.388;11.350;2023-06-22T09:20:13;7.05;;;4.63;;
11139;SDS011;5624;49.388;11.350;2023-06-22T09:22:38;12.68;;;4.85;;
11139;SDS011;5624;49.388;11.350;2023-06-22T09:25:04;9.55;;;4.82;;
11139;SDS011;5624;49.388;11.350;2023-06-22T09:27:30;7.93;;;4.75;;
11139;SDS011;5624;49.388;11.350;2023-06-22T09:29:56;7.70;;;4.80;;
11139;SDS011;5624;49.388;11.350;2023-06-22T09:32:23;7.65;;;4.20;;
11139;SDS011;5624;49.388;11.350;2023-06-22T09:34:49;7.97;;;4.30;;
11139;SDS011;5624;49.388;11.350;2023-06-22T09:37:15;9.05;;;4.80;;
11139;SDS011;5624;49.388;11.350;2023-06-22T09:39:40;5.88;;;4.50;;
11139;SDS011;5624;49.388;11.350;2023-06-22T09:42:06;7.35;;;4.88;;
11139;SDS011;5624;49.388;11.350;2023-06-22T09:44:32;9.55;;;4.70;;
11139;SDS011;5624;49.388;11.350;2023-06-22T09:46:58;7.78;;;4.80;;
11139;SDS011;5624;49.388;11.350;2023-06-22T09:49:23;7.63;;;4.60;;
11139;SDS011;5624;49.388;11.350;2023-06-22T09:51:49;9.05;;;4.75;;
11139;SDS011;5624;49.388;11.350;2023-06-22T09:54:16;9.07;;;4.85;;
11139;SDS011;5624;49.388;11.350;2023-06-22T09:56:41;9.80;;;5.10;;
11139;SDS011;5624;49.388;11.350;2023-06-22T09:59:07;7.70;;;4.97;;
11139;SDS011;5624;49.388;11.350;2023-06-22T10:01:32;9.35;;;4.72;;
11139;SDS011;5624;49.388;11.350;2023-06-22T10:03:58;9.52;;;4.78;;
11139;SDS011;5624;49.388;11.350;2023-06-22T10:06:24;7.40;;;4.47;;
11139;SDS011;5624;49.388;11.350;2023-06-22T10:08:50;10.70;;;4.90;;
11139;SDS011;5624;49.388;11.350;2023-06-22T10:11:16;6.78;;;4.82;;
11139;SDS011;5624;49.388;11.350;2023-06-22T10:13:42;10.98;;;5.28;;
11139;SDS011;5624;49.388;11.350;2023-06-22T10:16:07;8.57;;;4.85;;
11139;SDS011;5624;49.388;11.350;2023-06-22T10:18:33;8.90;;;4.65;;
11139;SDS011;5624;49.388;11.350;2023-06-22T10:20:59;8.05;;;4.78;;
11139;SDS011;5624;49.388;11.350;2023-06-22T10:23:25;10.73;;;4.90;;
11139;SDS011;5624;49.388;11.350;2023-06-22T10:25:51;10.02;;;4.90;;
11139;SDS011;5624;49.388;11.350;2023-06-22T10:28:16;9.85;;;4.68;;
11139;SDS011;5624;49.388;11.350;2023-06-22T10:30:42;9.07;;;5.05;;
11139;SDS011;5624;49.388;11.350;2023-06-22T10:33:08;8.90;;;4.75;;
11139;SDS011;5624;49.388;11.350;2023-06-22T10:35:35;10.93;;;5.50;;
11139;SDS011;5624;49.388;11.350;2023-06-22T10:38:02;8.00;;;4.80;;
11139;SDS011;5624;49.388;11.350;2023-06-22T10:40:28;8.75;;;4.70;;
11139;SDS011;5624;49.388;11.350;2023-06-22T10:42:54;12.07;;;5.00;;
11139;SDS011;5624;49.388;11.350;2023-06-22T10:45:20;8.02;;;4.80;;
11139;SDS011;5624;49.388;11.350;2023-06-22T10:47:45;10.23;;;5.05;;
11139;SDS011;5624;49.388;11.350;2023-06-22T10:50:11;9.55;;;4.82;;
11139;SDS011;5624;49.388;11.350;2023-06-22T10:52:37;10.20;;;4.90;;
11139;SDS011;5624;49.388;11.350;2023-06-22T10:55:02;8.18;;;4.75;;
11139;SDS011;5624;49.388;11.350;2023-06-22T10:57:28;8.80;;;4.88;;
11139;SDS011;5624;49.388;11.350;2023-06-22T10:59:54;11.18;;;5.53;;
11139;SDS011;5624;49.388;11.350;2023-06-22T11:02:20;11.50;;;5.38;;
11139;SDS011;5624;49.388;11.350;2023-06-22T11:04:45;7.95;;;5.05;;
11139;SDS011;5624;49.388;11.350;2023-06-22T11:07:12;6.85;;;4.88;;
11139;SDS011;5624;49.388;11.350;2023-06-22T11:09:38;8.25;;;4.50;;
11139;SDS011;5624;49.388;11.350;2023-06-22T11:12:05;9.65;;;4.95;;
11139;SDS011;5624;49.388;11.350;2023-06-22T11:14:32;8.13;;;5.35;;
11139;SDS011;5624;49.388;11.350;2023-06-22T11:16:58;10.10;;;5.53;;
11139;SDS011;5624;49.388;11.350;2023-06-22T11:19:24;7.70;;;4.65;;
11139;SDS011;5624;49.388;11.350;2023-06-22T11:21:50;9.93;;;5.50;;
11139;SDS011;5624;49.388;11.350;2023-06-22T11:24:16;8.50;;;4.88;;
11139;SDS011;5624;49.388;11.350;2023-06-22T11:26:42;10.20;;;5.18;;
11139;SDS011;5624;49.388;11.350;2023-06-22T11:29:07;7.78;;;5.25;;
11139;SDS011;5624;49.388;11.350;2023-06-22T11:31:34;8.70;;;4.93;;
11139;SDS011;5624;49.388;11.350;2023-06-22T11:34:00;7.53;;;4.90;;
11139;SDS011;5624;49.388;11.350;2023-06-22T11:36:26;9.70;;;5.30;;
11139;SDS011;5624;49.388;11.350;2023-06-22T11:38:52;9.68;;;5.43;;
11139;SDS011;5624;49.388;11.350;2023-06-22T11:41:18;9.73;;;5.72;;
11139;SDS011;5624;49.388;11.350;2023-06-22T11:43:44;13.80;;;5.10;;
11139;SDS011;5624;49.388;11.350;2023-06-22T11:46:10;9.32;;;5.00;;
11139;SDS011;5624;49.388;11.350;2023-06-22T11:48:36;13.35;;;5.10;;
11139;SDS011;5624;49.388;11.350;2023-06-22T11:51:02;11.23;;;5.18;;
11139;SDS011;5624;49.388;11.350;2023-06-22T11:53:28;8.75;;;4.72;;
11139;SDS011;5624;49.388;11.350;2023-06-22T11:55:54;9.82;;;5.03;;
11139;SDS011;5624;49.388;11.350;2023-06-22T11:58:21;7.53;;;5.07;;
11139;SDS011;5624;49.388;11.350;2023-06-22T12:00:47;13.48;;;5.95;;
11139;SDS011;5624;49.388;11.350;2023-06-22T12:03:13;9.23;;;4.95;;
11139;SDS011;5624;49.388;11.350;2023-06-22T12:05:39;11.05;;;5.03;;
11139;SDS011;5624;49.388;11.350;2023-06-22T12:08:05;10.35;;;5.35;;
11139;SDS011;5624;49.388;11.350;2023-06-22T12:10:31;9.93;;;5.00;;
11139;SDS011;5624;49.388;11.350;2023-06-22T12:12:57;11.32;;;5.47;;
11139;SDS011;5624;49.388;11.350;2023-06-22T12:15:24;9.10;;;5.30;;
11139;SDS011;5624;49.388;11.350;2023-06-22T12:17:50;12.63;;;5.28;;
11139;SDS011;5624;49.388;11.350;2023-06-22T12:20:16;10.70;;;5.25;;
11139;SDS011;5624;49.388;11.350;2023-06-22T12:22:41;10.68;;;5.13;;
11139;SDS011;5624;49.388;11.350;2023-06-22T12:25:08;9.32;;;5.25;;
11139;SDS011;5624;49.388;11.350;2023-06-22T12:27:37;8.88;;;5.30;;
11139;SDS011;5624;49.388;11.350;2023-06-22T12:30:03;9.95;;;5.25;;
11139;SDS011;5624;49.388;11.350;2023-06-22T12:32:29;14.75;;;5.72;;
11139;SDS011;5624;49.388;11.350;2023-06-22T12:34:55;11.40;;;5.68;;
11139;SDS011;5624;49.388;11.350;2023-06-22T12:37:21;11.70;;;5.78;;
11139;SDS011;5624;49.388;11.350;2023-06-22T12:39:48;7.60;;;4.80;;
11139;SDS011;5624;49.388;11.350;2023-06-22T12:42:14;8.57;;;5.03;;
11139;SDS011;5624;49.388;11.350;2023-06-22T12:44:40;9.40;;;4.90;;
11139;SDS011;5624;49.388;11.350;2023-06-22T12:47:06;10.77;;;4.93;;
11139;SDS011;5624;49.388;11.350;2023-06-22T12:49:36;9.07;;;4.80;;
11139;SDS011;5624;49.388;11.350;2023-06-22T12:52:02;12.75;;;5.80;;
11139;SDS011;5624;49.388;11.350;2023-06-22T12:54:29;9.15;;;5.20;;
11139;SDS011;5624;49.388;11.350;2023-06-22T12:56:55;9.85;;;5.43;;
11139;SDS011;5624;49.388;11.350;2023-06-22T12:59:21;10.80;;;5.18;;
11139;SDS011;5624;49.388;11.350;2023-06-22T13:01:47;10.27;;;5.28;;
11139;SDS011;5624;49.388;11.350;2023-06-22T13:04:12;12.38;;;5.30;;
11139;SDS011;5624;49.388;11.350;2023-06-22T13:06:40;8.30;;;5.25;;
11139;SDS011;5624;49.388;11.350;2023-06-22T13:09:06;11.77;;;5.68;;
11139;SDS011;5624;49.388;11.350;2023-06-22T13:11:32;10.73;;;5.00;;
11139;SDS011;5624;49.388;11.350;2023-06-22T13:13:57;15.05;;;5.25;;
11139;SDS011;5624;49.388;11.350;2023-06-22T13:16:23;11.57;;;5.25;;
11139;SDS011;5624;49.388;11.350;2023-06-22T13:18:48;12.63;;;4.88;;
11139;SDS011;5624;49.388;11.350;2023-06-22T13:21:14;13.13;;;5.93;;
11139;SDS011;5624;49.388;11.350;2023-06-22T13:23:39;11.38;;;5.65;;
11139;SDS011;5624;49.388;11.350;2023-06-22T13:26:05;12.82;;;5.53;;
11139;SDS011;5624;49.388;11.350;2023-06-22T13:28:32;11.15;;;5.40;;
11139;SDS011;5624;49.388;11.350;2023-06-22T13:30:58;14.23;;;5.07;;
11139;SDS011;5624;49.388;11.350;2023-06-22T13:33:23;8.90;;;4.82;;
11139;SDS011;5624;49.388;11.350;2023-06-22T13:35:49;9.68;;;5.03;;
11139;SDS011;5624;49.388;11.350;2023-06-22T13:38:16;10.65;;;4.90;;
11139;SDS011;5624;49.388;11.350;2023-06-22T13:40:42;8.80;;;5.25;;
11139;SDS011;5624;49.388;11.350;2023-06-22T13:43:08;9.70;;;5.60;;
11139;SDS011;5624;49.388;11.350;2023-06-22T13:45:34;9.65;;;5.25;;
11139;SDS011;5624;49.388;11.350;2023-06-22T13:47:59;8.52;;;4.93;;
11139;SDS011;5624;49.388;11.350;2023-06-22T13:50:25;7.85;;;4.85;;
11139;SDS011;5624;49.388;11.350;2023-06-22T13:52:51;14.43;;;5.60;;
11139;SDS011;5624;49.388;11.350;2023-06-22T13:55:16;17.23;;;5.43;;
11139;SDS011;5624;49.388;11.350;2023-06-22T13:57:42;11.43;;;5.15;;
11139;SDS011;5624;49.388;11.350;2023-06-22T14:00:08;10.60;;;5.45;;
11139;SDS011;5624;49.388;11.350;2023-06-22T14:02:34;12.98;;;5.55;;
11139;SDS011;5624;49.388;11.350;2023-06-22T14:05:00;9.15;;;5.22;;
11139;SDS011;5624;49.388;11.350;2023-06-22T14:07:27;12.55;;;5.55;;
11139;SDS011;5624;49.388;11.350;2023-06-22T14:09:53;9.05;;;5.07;;
11139;SDS011;5624;49.388;11.350;2023-06-22T14:12:18;8.60;;;5.35;;
11139;SDS011;5624;49.388;11.350;2023-06-22T14:14:44;9.85;;;5.05;;
11139;SDS011;5624;49.388;11.350;2023-06-22T14:17:10;8.88;;;5.10;;
11139;SDS011;5624;49.388;11.350;2023-06-22T14:19:36;14.68;;;5.18;;
11139;SDS011;5624;49.388;11.350;2023-06-22T14:22:02;9.00;;;4.97;;
11139;SDS011;5624;49.388;11.350;2023-06-22T14:24:28;12.30;;;5.43;;
11139;SDS011;5624;49.388;11.350;2023-06-22T14:26:54;10.82;;;4.75;;
11139;SDS011;5624;49.388;11.350;2023-06-22T14:29:20;8.52;;;5.38;;
11139;SDS011;5624;49.388;11.350;2023-06-22T14:31:50;12.70;;;4.82;;
11139;SDS011;5624;49.388;11.350;2023-06-22T14:34:16;10.50;;;5.32;;
11139;SDS011;5624;49.388;11.350;2023-06-22T14:36:41;14.82;;;5.20;;
11139;SDS011;5624;49.388;11.350;2023-06-22T14:39:08;12.05;;;5.50;;
11139;SDS011;5624;49.388;11.350;2023-06-22T14:41:34;11.48;;;5.20;;
11139;SDS011;5624;49.388;11.350;2023-06-22T14:43:59;12.57;;;5.38;;
11139;SDS011;5624;49.388;11.350;2023-06-22T14:46:25;11.43;;;4.93;;
11139;SDS011;5624;49.388;11.350;2023-06-22T14:48:51;11.10;;;5.85;;